createdAt,value
2022-12-18T08:10:28.935Z,65.65
2022-12-18T08:12:57.835Z,69.95
2022-12-18T08:15:28.227Z,73.85
2022-12-18T08:17:57.909Z,116.55
2022-12-18T08:20:24.674Z,70.90
2022-12-18T08:22:51.366Z,104.18
2022-12-18T08:25:18.122Z,99.60
2022-12-18T08:27:44.811Z,124.68
2022-12-18T08:30:12.040Z,100.45
2022-12-18T08:32:38.744Z,100.20
2022-12-18T08:35:06.461Z,97.22
2022-12-18T08:37:33.380Z,74.43
2022-12-18T08:40:00.289Z,101.53
2022-12-18T08:42:45.481Z,90.22
2022-12-18T08:45:12.292Z,87.40
2022-12-18T08:47:39.073Z,52.35
2022-12-18T08:50:07.031Z,81.70
2022-12-18T08:52:33.918Z,84.15
2022-12-18T08:55:00.645Z,88.18
2022-12-18T08:57:27.305Z,70.90
2022-12-18T08:59:54.197Z,68.45
2022-12-18T09:02:23.737Z,82.43
2022-12-18T09:04:57.346Z,62.75
2022-12-18T09:07:27.501Z,77.72
2022-12-18T09:09:54.342Z,53.63
2022-12-18T09:12:21.572Z,59.25
2022-12-18T09:14:48.245Z,64.65
2022-12-18T09:17:14.981Z,63.15
2022-12-18T09:19:41.870Z,65.25
2022-12-18T09:22:08.570Z,65.38
2022-12-18T09:24:35.297Z,56.55
2022-12-18T09:27:02.249Z,74.07
2022-12-18T09:29:29.556Z,63.67
2022-12-18T09:31:56.232Z,56.30
2022-12-18T09:34:23.079Z,67.18
2022-12-18T09:36:50.202Z,56.38
2022-12-18T09:39:17.982Z,56.78
2022-12-18T09:41:56.815Z,47.40
2022-12-18T09:44:43.030Z,57.80
2022-12-18T09:47:37.632Z,52.33
2022-12-18T09:50:24.952Z,37.10
2022-12-18T09:52:56.132Z,40.35
2022-12-18T09:55:43.546Z,40.85
2022-12-18T09:58:10.986Z,46.95
2022-12-18T10:00:37.758Z,46.50
2022-12-18T10:03:11.485Z,41.63
2022-12-18T10:06:07.743Z,33.08
2022-12-18T10:08:52.145Z,42.40
2022-12-18T10:11:21.894Z,31.38
2022-12-18T10:13:58.008Z,41.40
2022-12-18T10:16:40.586Z,36.17
2022-12-18T10:19:50.198Z,47.28
2022-12-18T10:22:35.306Z,35.13
2022-12-18T10:25:26.345Z,34.60
2022-12-18T10:27:58.416Z,43.67
2022-12-18T10:30:26.650Z,53.65
2022-12-18T10:32:53.757Z,53.92
2022-12-18T10:35:26.713Z,41.33
2022-12-18T10:38:04.333Z,38.55
2022-12-18T10:40:31.691Z,42.65
2022-12-18T10:43:13.625Z,42.95
2022-12-18T10:45:40.847Z,48.10
2022-12-18T10:48:20.954Z,55.30
2022-12-18T10:53:38.589Z,59.00
2022-12-18T10:56:07.440Z,57.90
2022-12-18T10:58:39.581Z,46.00
2022-12-18T11:01:16.792Z,57.58
2022-12-18T11:03:45.208Z,45.03
2022-12-18T11:06:17.629Z,43.45
2022-12-18T11:08:57.652Z,44.00
2022-12-18T11:11:25.261Z,58.17
2022-12-18T11:14:00.548Z,59.53
2022-12-18T11:16:28.776Z,58.00
2022-12-18T11:18:56.190Z,56.67
2022-12-18T11:21:22.999Z,56.13
2022-12-18T11:23:54.466Z,43.80
2022-12-18T11:26:22.726Z,38.72
2022-12-18T11:29:10.037Z,35.80
2022-12-18T11:31:36.939Z,46.92
2022-12-18T11:34:31.361Z,32.38
2022-12-18T11:37:01.530Z,35.15
2022-12-18T11:39:44.064Z,38.97
2022-12-18T11:42:25.292Z,40.78
2022-12-18T11:45:16.266Z,37.58
2022-12-18T11:47:45.768Z,39.67
2022-12-18T11:50:38.233Z,32.53
2022-12-18T11:53:06.390Z,33.03
2022-12-18T11:55:45.358Z,35.88
2022-12-18T11:58:40.124Z,36.90
2022-12-18T12:01:43.341Z,30.45
2022-12-18T12:04:26.003Z,36.83
2022-12-18T12:07:12.571Z,29.38
2022-12-18T12:10:08.501Z,36.17
2022-12-18T12:12:52.702Z,41.33
2022-12-18T12:15:28.040Z,31.88
2022-12-18T12:18:25.641Z,40.78
2022-12-18T12:21:07.467Z,32.53
2022-12-18T12:23:47.860Z,31.15
2022-12-18T12:26:17.632Z,40.92
2022-12-18T12:29:01.808Z,32.80
2022-12-18T12:31:54.096Z,36.83
2022-12-18T12:34:27.485Z,33.20
2022-12-18T12:37:14.514Z,30.48
2022-12-18T12:39:45.463Z,33.92
2022-12-18T12:42:56.350Z,32.10
2022-12-18T12:45:31.903Z,27.58
2022-12-18T12:48:00.642Z,33.57
2022-12-18T12:50:27.950Z,37.50
2022-12-18T12:53:00.993Z,44.75
2022-12-18T12:55:57.329Z,35.10
2022-12-18T12:58:46.818Z,49.42
2022-12-18T13:01:49.115Z,25.77
2022-12-18T13:04:40.169Z,34.10
2022-12-18T13:07:16.641Z,36.30
2022-12-18T13:10:14.512Z,26.38
2022-12-18T13:12:59.868Z,32.80
2022-12-18T13:15:48.205Z,29.83
2022-12-18T13:18:19.578Z,29.98
2022-12-18T13:20:55.209Z,27.60
2022-12-18T13:23:31.854Z,34.88
2022-12-18T13:26:27.966Z,30.05
2022-12-18T13:28:56.881Z,36.87
2022-12-18T13:31:42.623Z,30.58
2022-12-18T13:34:27.884Z,34.97
2022-12-18T13:36:57.275Z,32.42
2022-12-18T13:39:35.242Z,28.17
2022-12-18T13:42:05.600Z,32.08
2022-12-18T13:44:40.342Z,35.33
2022-12-18T13:47:38.602Z,46.10
2022-12-18T13:50:33.927Z,34.55
2022-12-18T13:53:05.634Z,39.75
2022-12-18T13:55:33.317Z,39.00
2022-12-18T13:58:06.921Z,35.67
2022-12-18T14:00:37.008Z,41.47
2022-12-18T14:03:21.839Z,38.08
2022-12-18T14:05:56.339Z,45.75
2022-12-18T14:08:27.277Z,46.28
2022-12-18T14:10:54.560Z,42.67
2022-12-18T14:13:39.056Z,49.40
2022-12-18T14:16:08.356Z,44.00
2022-12-18T14:18:51.593Z,56.03
2022-12-18T14:21:20.041Z,42.55
2022-12-18T14:23:47.027Z,47.60
2022-12-18T14:26:31.257Z,58.63
2022-12-18T14:29:01.971Z,35.65
2022-12-18T14:31:31.603Z,46.85
2022-12-18T14:33:58.635Z,38.53
2022-12-18T14:36:29.114Z,48.10
2022-12-18T14:38:58.455Z,47.90
2022-12-18T14:41:28.704Z,51.45
2022-12-18T14:44:11.198Z,50.55
2022-12-18T14:46:43.978Z,46.47
2022-12-18T14:49:31.138Z,37.85
2022-12-18T14:52:03.467Z,30.50
2022-12-18T14:54:35.080Z,27.38
2022-12-18T14:57:03.478Z,34.30
2022-12-18T14:59:31.304Z,37.97
2022-12-18T15:02:00.330Z,38.03
2022-12-18T15:04:45.613Z,35.40
2022-12-18T15:07:14.698Z,50.53
2022-12-18T15:09:46.909Z,40.53
2022-12-18T15:12:36.629Z,37.42
2022-12-18T15:15:04.749Z,35.25
2022-12-18T15:17:32.491Z,29.38
2022-12-18T15:20:10.473Z,29.60
2022-12-18T15:22:38.557Z,22.92
2022-12-18T15:25:28.520Z,33.35
2022-12-18T15:27:55.334Z,30.00
2022-12-18T15:30:23.901Z,29.95
2022-12-18T15:32:51.677Z,30.13
2022-12-18T15:35:24.563Z,28.00
2022-12-18T15:37:53.178Z,35.53
2022-12-18T15:40:22.729Z,28.90
2022-12-18T15:43:10.965Z,42.28
2022-12-18T15:45:37.749Z,29.63
2022-12-18T15:48:22.312Z,24.90
2022-12-18T15:50:51.284Z,38.00
2022-12-18T15:53:18.796Z,27.73
2022-12-18T15:56:03.990Z,28.52
2022-12-18T15:58:31.643Z,36.88
2022-12-18T16:01:00.176Z,35.53
2022-12-18T16:03:27.065Z,38.20
2022-12-18T16:05:54.888Z,30.85
2022-12-18T16:08:31.926Z,26.95
2022-12-18T16:10:59.255Z,30.88
2022-12-18T16:13:26.547Z,27.73
2022-12-18T16:15:54.826Z,36.67
2022-12-18T16:18:21.650Z,38.25
2022-12-18T16:20:48.532Z,42.55
2022-12-18T16:23:15.367Z,39.53
2022-12-18T16:25:45.148Z,29.83
2022-12-18T16:28:11.930Z,35.00
2022-12-18T16:30:38.920Z,32.35
2022-12-18T16:33:06.923Z,29.27
2022-12-18T16:35:35.003Z,36.67
2022-12-18T16:38:02.396Z,31.58
